Airport View

Enter AWOS ICAO identifier for current METAR.

ex. KFNL

KGWW 212315Z AUTO 00000KT 10SM CLR 23/19 A3021 RMK AO2 T02290193

21 Sep 2019 23:23

Frequency: 118.975

Phone: 919-731-4473

Other Area AWOS: KGSB - KISO - KJNX - KRWI

TAF AMD KGSB 202350Z 2023/2202 VRB04KT 9999 SKC QNH3025INS BECMG 2111/2112 24006KT 9999 SKC QNH3018INS TX28/2120Z TN12/2110Z LAST NO AMDS AFT 2023 NEXT 2304